createdAt,value
2024-01-15T00:00:06.266Z,46.65
2024-01-15T00:05:08.375Z,46.69
2024-01-15T00:10:05.275Z,45.88
2024-01-15T00:15:01.900Z,45.59
2024-01-15T00:19:58.499Z,45.87
2024-01-15T00:24:55.832Z,45.39
2024-01-15T00:29:52.822Z,45.52
2024-01-15T00:34:49.633Z,45.22
2024-01-15T00:39:46.419Z,44.30
2024-01-15T00:44:43.670Z,44.83
2024-01-15T00:49:40.367Z,44.55
2024-01-15T00:54:36.886Z,44.17
2024-01-15T00:59:33.478Z,44.48
2024-01-15T01:04:30.752Z,44.27
2024-01-15T01:09:29.662Z,44.52
2024-01-15T01:14:26.186Z,44.34
2024-01-15T01:19:22.995Z,44.93
2024-01-15T01:24:20.392Z,44.75
2024-01-15T01:29:16.897Z,44.61
2024-01-15T01:34:15.064Z,44.81
2024-01-15T01:39:12.312Z,44.71
2024-01-15T01:44:09.589Z,45.11
2024-01-15T01:49:07.037Z,44.93
2024-01-15T01:54:04.259Z,45.32
2024-01-15T01:59:01.375Z,45.14
2024-01-15T02:04:00.198Z,45.34
2024-01-15T02:08:56.926Z,45.57
2024-01-15T02:13:53.534Z,46.06
2024-01-15T02:18:50.212Z,46.47
2024-01-15T02:23:47.592Z,46.16
2024-01-15T02:28:44.956Z,46.45
2024-01-15T02:33:42.701Z,46.42
2024-01-15T02:38:39.292Z,46.76
2024-01-15T02:43:36.566Z,46.66
2024-01-15T02:48:33.487Z,46.75
2024-01-15T02:53:30.145Z,46.52
2024-01-15T02:58:26.746Z,46.88
2024-01-15T03:03:24.577Z,47.16
2024-01-15T03:08:23.001Z,46.64
2024-01-15T03:13:19.974Z,46.12
2024-01-15T03:18:16.553Z,46.20
2024-01-15T03:23:13.857Z,47.55
2024-01-15T03:28:10.417Z,49.32
2024-01-15T03:33:07.040Z,50.12
2024-01-15T03:38:03.733Z,50.60
2024-01-15T03:43:00.908Z,49.39
2024-01-15T03:47:57.496Z,50.82
2024-01-15T03:52:54.124Z,51.25
2024-01-15T03:57:50.691Z,52.11
2024-01-15T04:02:48.019Z,52.52
2024-01-15T04:07:44.688Z,52.34
2024-01-15T04:12:41.220Z,52.05
2024-01-15T04:17:37.812Z,52.27
2024-01-15T04:22:35.029Z,52.96
2024-01-15T04:27:31.619Z,52.32
2024-01-15T04:32:28.242Z,51.23
2024-01-15T04:37:24.740Z,50.57
2024-01-15T04:42:22.288Z,50.19
2024-01-15T04:47:18.812Z,49.67
2024-01-15T04:52:15.331Z,49.02
2024-01-15T04:57:11.990Z,49.36
2024-01-15T05:02:09.288Z,49.30
2024-01-15T05:07:05.934Z,49.36
2024-01-15T05:12:02.555Z,50.76
2024-01-15T05:16:59.066Z,51.16
2024-01-15T05:21:56.308Z,51.69
2024-01-15T05:26:52.897Z,51.37
2024-01-15T05:31:49.601Z,51.86
2024-01-15T05:36:48.273Z,51.80
2024-01-15T05:41:45.495Z,51.60
2024-01-15T05:46:42.030Z,51.60
2024-01-15T05:51:38.627Z,51.42
2024-01-15T05:56:35.381Z,50.94
2024-01-15T06:01:32.680Z,50.88
2024-01-15T06:06:29.513Z,50.29
2024-01-15T06:11:30.380Z,50.12
2024-01-15T06:16:27.207Z,50.05
2024-01-15T06:21:24.532Z,51.40
2024-01-15T06:26:21.057Z,52.91
2024-01-15T06:31:17.719Z,53.35
2024-01-15T06:36:14.602Z,53.54
2024-01-15T06:41:12.036Z,54.18
2024-01-15T06:46:09.164Z,54.10
2024-01-15T06:51:06.012Z,54.45
2024-01-15T06:56:02.596Z,54.47
2024-01-15T07:01:00.096Z,55.47
2024-01-15T07:05:56.805Z,55.85
2024-01-15T07:10:53.447Z,58.01
2024-01-15T07:15:50.715Z,58.24
2024-01-15T07:20:48.233Z,57.51
2024-01-15T07:25:44.784Z,56.99
2024-01-15T07:30:41.535Z,56.24
2024-01-15T07:35:38.729Z,56.16
2024-01-15T07:40:37.369Z,56.47
2024-01-15T07:45:34.084Z,58.63
2024-01-15T07:50:31.477Z,57.62
2024-01-15T07:55:28.111Z,57.06
2024-01-15T08:00:26.959Z,56.78
2024-01-15T08:05:24.169Z,56.20
2024-01-15T08:10:20.983Z,55.64
2024-01-15T08:15:18.777Z,55.58
2024-01-15T08:20:16.782Z,54.99
2024-01-15T08:25:14.061Z,55.18
2024-01-15T08:30:11.430Z,55.42
2024-01-15T08:35:08.376Z,54.64
2024-01-15T08:40:06.204Z,54.27
2024-01-15T08:45:05.386Z,54.09
2024-01-15T08:50:02.399Z,53.16
2024-01-15T08:54:59.136Z,51.86
2024-01-15T08:59:56.487Z,51.36
2024-01-15T09:04:53.184Z,49.08
2024-01-15T09:09:51.753Z,42.60
2024-01-15T09:14:48.393Z,40.61
2024-01-15T09:19:46.176Z,39.97
2024-01-15T09:24:43.179Z,39.97
2024-01-15T09:29:45.601Z,38.96
2024-01-15T09:34:42.363Z,38.24
2024-01-15T09:39:39.848Z,40.06
2024-01-15T09:44:36.524Z,41.06
2024-01-15T09:49:33.692Z,39.83
2024-01-15T09:54:30.348Z,38.94
2024-01-15T09:59:28.057Z,37.14
2024-01-15T10:04:25.092Z,37.85
2024-01-15T10:09:21.957Z,37.80
2024-01-15T10:14:18.523Z,37.90
2024-01-15T10:19:15.845Z,37.75
2024-01-15T10:24:13.469Z,38.17
2024-01-15T10:29:11.306Z,37.79
2024-01-15T10:34:12.588Z,36.56
2024-01-15T10:39:10.130Z,36.29
2024-01-15T10:44:07.026Z,36.42
2024-01-15T10:49:04.956Z,35.87
2024-01-15T10:54:02.168Z,35.50
2024-01-15T10:59:00.938Z,35.33
2024-01-15T11:03:58.378Z,35.23
2024-01-15T11:08:55.427Z,35.23
2024-01-15T11:13:52.939Z,35.38
2024-01-15T11:19:08.818Z,35.36
2024-01-15T11:24:11.723Z,34.50
2024-01-15T11:29:09.099Z,33.89
2024-01-15T11:34:06.208Z,33.78
2024-01-15T11:39:30.848Z,33.92
2024-01-15T11:44:27.758Z,33.62
2024-01-15T11:49:30.768Z,33.77
2024-01-15T11:54:33.141Z,33.86
2024-01-15T11:59:30.043Z,34.15
2024-01-15T12:04:27.329Z,34.09
2024-01-15T12:09:25.341Z,33.75
2024-01-15T12:14:22.962Z,33.66
2024-01-15T12:19:19.821Z,34.00
2024-01-15T12:24:17.782Z,33.75
2024-01-15T12:29:14.496Z,33.54
2024-01-15T12:34:11.798Z,33.89
2024-01-15T12:39:14.268Z,34.01
2024-01-15T12:44:12.188Z,33.91
2024-01-15T12:49:08.986Z,34.22
2024-01-15T12:54:15.199Z,34.54
2024-01-15T12:59:11.702Z,34.51
2024-01-15T13:04:09.403Z,34.34
2024-01-15T13:09:06.207Z,34.57
2024-01-15T13:14:03.482Z,34.52
2024-01-15T13:19:00.250Z,34.51
2024-01-15T13:23:56.972Z,35.06
2024-01-15T13:28:54.057Z,34.64
2024-01-15T13:33:52.695Z,35.11
2024-01-15T13:38:50.558Z,35.71
2024-01-15T13:43:48.797Z,35.77
2024-01-15T13:48:45.412Z,35.93
2024-01-15T13:53:51.398Z,36.08
2024-01-15T13:58:48.808Z,36.82
2024-01-15T14:03:45.572Z,36.97
2024-01-15T14:08:42.292Z,36.90
2024-01-15T14:13:39.506Z,37.55
2024-01-15T14:18:36.409Z,37.51
2024-01-15T14:23:33.305Z,37.75
2024-01-15T14:28:29.851Z,37.72
2024-01-15T14:33:27.312Z,37.81
2024-01-15T14:38:23.961Z,38.40
2024-01-15T14:43:21.723Z,38.73
2024-01-15T14:48:19.218Z,38.86
2024-01-15T14:53:16.452Z,38.96
2024-01-15T14:58:12.947Z,39.02
2024-01-15T15:03:10.952Z,39.10
2024-01-15T15:08:09.238Z,39.34
2024-01-15T15:13:06.752Z,39.68
2024-01-15T15:18:03.693Z,39.65
2024-01-15T15:23:00.242Z,39.71
2024-01-15T15:27:57.016Z,40.35
2024-01-15T15:32:54.967Z,40.17
2024-01-15T15:37:53.269Z,40.54
2024-01-15T15:42:49.906Z,40.71
2024-01-15T15:47:46.531Z,41.37
2024-01-15T15:52:43.924Z,41.31
2024-01-15T15:57:40.586Z,41.29
2024-01-15T16:02:37.349Z,41.31
2024-01-15T16:07:36.600Z,41.47
2024-01-15T16:12:33.869Z,41.51
2024-01-15T16:23:16.093Z,41.76
2024-01-15T16:23:43.984Z,42.57
2024-01-15T16:28:05.845Z,42.96
2024-01-15T16:33:02.687Z,43.44
2024-01-15T16:37:59.378Z,43.81
2024-01-15T16:42:56.163Z,43.99
2024-01-15T16:47:53.539Z,44.36
2024-01-15T16:52:52.160Z,44.23
2024-01-15T16:57:48.714Z,44.01
2024-01-15T17:02:45.368Z,43.76
2024-01-15T17:07:42.752Z,44.04
2024-01-15T17:12:39.346Z,44.52
2024-01-15T17:17:36.084Z,44.90
2024-01-15T17:22:36.968Z,45.56
2024-01-15T17:27:34.242Z,45.87
2024-01-15T17:32:30.963Z,45.71
2024-01-15T17:37:27.594Z,45.58
2024-01-15T17:42:24.248Z,45.19
2024-01-15T17:47:21.503Z,44.21
2024-01-15T17:52:18.272Z,43.45
2024-01-15T17:57:14.923Z,43.67
2024-01-15T18:02:11.921Z,42.20
2024-01-15T18:07:09.141Z,42.08
2024-01-15T18:12:05.884Z,41.78
2024-01-15T18:17:02.541Z,42.35
2024-01-15T18:21:59.065Z,41.85
2024-01-15T18:26:56.263Z,41.51
2024-01-15T18:31:52.858Z,41.23
2024-01-15T18:36:50.244Z,41.19
2024-01-15T18:41:46.965Z,41.11
2024-01-15T18:46:53.405Z,41.16
2024-01-15T18:51:53.752Z,41.39
2024-01-15T18:56:51.887Z,41.70
2024-01-15T19:01:50.456Z,41.47
2024-01-15T19:06:49.501Z,44.85
2024-01-15T19:11:46.331Z,45.51
2024-01-15T19:16:43.235Z,41.96
2024-01-15T19:21:39.896Z,41.77
2024-01-15T19:26:37.147Z,44.63
2024-01-15T19:31:33.798Z,43.38
2024-01-15T19:36:30.440Z,41.86
2024-01-15T19:41:26.983Z,42.08
2024-01-15T19:46:24.398Z,43.15
2024-01-15T19:51:20.909Z,51.53
2024-01-15T19:56:18.034Z,43.60
2024-01-15T20:01:14.665Z,41.93
2024-01-15T20:06:13.964Z,41.55
2024-01-15T20:11:10.868Z,41.68
2024-01-15T20:16:08.299Z,41.88
2024-01-15T20:21:05.224Z,41.57
2024-01-15T20:26:03.381Z,41.73
2024-01-15T20:30:59.917Z,42.83
2024-01-15T20:35:56.543Z,45.57
2024-01-15T20:40:53.069Z,46.87
2024-01-15T20:45:50.484Z,51.62
2024-01-15T20:50:47.060Z,53.94
2024-01-15T20:55:43.985Z,53.98
2024-01-15T21:00:40.638Z,50.54
2024-01-15T21:05:37.882Z,50.22
2024-01-15T21:10:34.544Z,47.29
2024-01-15T21:15:31.087Z,46.10
2024-01-15T21:20:27.749Z,45.21
2024-01-15T21:25:25.023Z,43.85
2024-01-15T21:30:22.525Z,42.90
2024-01-15T21:35:19.128Z,43.55
2024-01-15T21:40:16.381Z,44.21
2024-01-15T21:45:13.635Z,43.75
2024-01-15T21:50:10.568Z,44.11
2024-01-15T21:55:08.557Z,45.04
2024-01-15T22:00:06.931Z,46.47
2024-01-15T22:05:08.725Z,47.45
2024-01-15T22:10:07.836Z,47.80
2024-01-15T22:15:04.613Z,46.61
2024-01-15T22:20:01.319Z,47.37
2024-01-15T22:24:58.559Z,48.38
2024-01-15T22:29:55.191Z,49.34
2024-01-15T22:34:51.795Z,48.96
2024-01-15T22:39:48.889Z,49.67
2024-01-15T22:44:46.250Z,48.95
2024-01-15T22:49:43.395Z,48.68
2024-01-15T22:54:39.894Z,48.76
2024-01-15T22:59:36.592Z,49.93
2024-01-15T23:04:33.785Z,49.70
2024-01-15T23:09:30.352Z,51.42
2024-01-15T23:14:26.864Z,51.86
2024-01-15T23:19:23.604Z,52.36
2024-01-15T23:24:21.018Z,52.79
2024-01-15T23:29:17.884Z,53.89
2024-01-15T23:34:14.475Z,54.33
2024-01-15T23:39:11.263Z,54.18
2024-01-15T23:44:08.511Z,54.18
2024-01-15T23:49:05.130Z,53.16
2024-01-15T23:54:01.700Z,52.29
2024-01-15T23:58:58.276Z,52.41
